createdAt,value
2023-04-15T00:01:24.231Z,10.76
2023-04-15T00:04:38.644Z,10.73
2023-04-15T00:07:56.728Z,10.68
2023-04-15T00:11:23.061Z,10.62
2023-04-15T00:14:34.579Z,10.57
2023-04-15T00:18:01.037Z,10.51
2023-04-15T00:21:14.934Z,10.45
2023-04-15T00:24:19.558Z,10.40
2023-04-15T00:27:52.555Z,10.35
2023-04-15T00:31:07.135Z,10.30
2023-04-15T00:34:19.213Z,10.28
2023-04-15T00:37:45.944Z,10.26
2023-04-15T00:40:59.179Z,10.23
2023-04-15T00:44:15.900Z,10.21
2023-04-15T00:47:55.142Z,10.19
2023-04-15T00:51:33.757Z,10.18
2023-04-15T00:54:58.761Z,10.12
2023-04-15T00:58:38.839Z,10.08
2023-04-15T01:02:28.052Z,10.04
2023-04-15T01:06:04.579Z,9.99
2023-04-15T01:09:53.798Z,9.97
2023-04-15T01:13:24.783Z,9.94
2023-04-15T01:16:59.511Z,9.90
2023-04-15T01:20:27.895Z,9.88
2023-04-15T01:23:59.760Z,9.83
2023-04-15T01:27:26.347Z,9.81
2023-04-15T01:30:57.334Z,9.78
2023-04-15T01:34:24.083Z,9.75
2023-04-15T01:37:44.178Z,9.74
2023-04-15T01:41:01.781Z,9.74
2023-04-15T01:44:46.081Z,9.70
2023-04-15T01:48:27.346Z,9.71
2023-04-15T01:51:51.036Z,9.70
2023-04-15T01:55:20.209Z,9.68
2023-04-15T01:58:48.931Z,9.65
2023-04-15T02:02:19.798Z,9.64
2023-04-15T02:06:01.838Z,9.65
2023-04-15T02:09:38.854Z,9.65
2023-04-15T02:13:02.935Z,9.63
2023-04-15T02:16:41.180Z,9.58
2023-04-15T02:19:53.766Z,9.58
2023-04-15T02:23:12.520Z,9.59
2023-04-15T02:26:54.124Z,9.56
2023-04-15T02:30:19.363Z,9.51
2023-04-15T02:33:55.902Z,9.49
2023-04-15T02:37:27.459Z,9.51
2023-04-15T02:40:56.054Z,9.51
2023-04-15T02:44:27.601Z,9.51
2023-04-15T02:48:06.789Z,9.51
2023-04-15T02:51:50.681Z,9.49
2023-04-15T02:55:04.634Z,9.49
2023-04-15T02:58:53.703Z,9.51
2023-04-15T03:02:23.583Z,9.48
2023-04-15T03:06:18.214Z,9.47
2023-04-15T03:09:41.991Z,9.47
2023-04-15T03:13:04.224Z,9.48
2023-04-15T03:16:33.834Z,9.49
2023-04-15T03:19:59.895Z,9.49
2023-04-15T03:23:25.037Z,9.48
2023-04-15T03:26:56.123Z,9.49
2023-04-15T03:30:39.103Z,9.48
2023-04-15T03:34:11.426Z,9.45
2023-04-15T03:37:50.046Z,9.44
2023-04-15T03:41:12.695Z,9.46
2023-04-15T03:44:57.255Z,9.47
2023-04-15T03:48:28.936Z,9.46
2023-04-15T03:52:02.215Z,9.46
2023-04-15T03:55:41.965Z,9.48
2023-04-15T03:59:18.743Z,9.50
2023-04-15T04:02:57.176Z,9.52
2023-04-15T04:06:09.569Z,9.51
2023-04-15T04:09:25.969Z,9.50
2023-04-15T04:13:07.770Z,9.50
2023-04-15T04:16:47.390Z,9.50
2023-04-15T04:20:12.018Z,9.51
2023-04-15T04:23:50.741Z,9.51
2023-04-15T04:27:21.154Z,9.51
2023-04-15T04:30:54.363Z,9.51
2023-04-15T04:34:18.458Z,9.49
2023-04-15T04:37:47.748Z,9.49
2023-04-15T04:41:16.654Z,9.51
2023-04-15T04:45:05.746Z,9.54
2023-04-15T04:48:20.168Z,9.56
2023-04-15T04:52:01.045Z,9.56
2023-04-15T04:55:37.825Z,9.57
2023-04-15T04:58:43.372Z,9.59
2023-04-15T05:02:10.210Z,9.63
2023-04-15T05:05:42.331Z,9.61
2023-04-15T05:09:07.085Z,9.62
2023-04-15T05:12:40.699Z,9.63
2023-04-15T05:15:47.519Z,9.64
2023-04-15T05:18:38.038Z,9.66
2023-04-15T05:21:42.601Z,9.69
2023-04-15T05:24:36.571Z,9.72
2023-04-15T05:27:27.477Z,9.74
2023-04-15T05:30:39.275Z,9.78
2023-04-15T05:33:24.962Z,9.81
2023-04-15T05:36:20.058Z,9.88
2023-04-15T05:39:28.169Z,9.92
2023-04-15T05:42:12.524Z,9.98
2023-04-15T05:44:52.601Z,10.03
2023-04-15T05:47:38.753Z,10.04
2023-04-15T05:50:37.261Z,10.05
2023-04-15T05:53:47.712Z,10.05
2023-04-15T05:56:27.876Z,10.04
2023-04-15T05:59:33.214Z,10.02
2023-04-15T06:02:16.612Z,9.99
2023-04-15T06:05:01.373Z,9.98
2023-04-15T06:07:48.717Z,9.97
2023-04-15T06:10:39.011Z,9.95
2023-04-15T06:13:42.716Z,9.95
2023-04-15T06:16:30.876Z,9.94
2023-04-15T06:19:12.653Z,9.90
2023-04-15T06:21:49.327Z,9.88
2023-04-15T06:24:31.600Z,9.89
2023-04-15T06:27:25.077Z,9.92
2023-04-15T06:30:16.298Z,9.96
2023-04-15T06:33:05.599Z,9.98
2023-04-15T06:35:49.874Z,10.01
2023-04-15T06:38:43.887Z,10.04
2023-04-15T06:41:34.384Z,10.07
2023-04-15T06:44:20.271Z,10.11
2023-04-15T06:47:04.629Z,10.12
2023-04-15T06:49:47.540Z,10.11
2023-04-15T06:52:32.732Z,10.03
2023-04-15T06:55:34.061Z,9.96
2023-04-15T06:58:15.457Z,9.94
2023-04-15T07:01:07.658Z,9.97
2023-04-15T07:03:42.144Z,10.00
2023-04-15T07:06:44.159Z,10.01
2023-04-15T07:09:29.335Z,10.01
2023-04-15T07:12:26.906Z,10.04
2023-04-15T07:15:13.604Z,10.04
2023-04-15T07:18:09.847Z,10.12
2023-04-15T07:21:00.438Z,10.17
2023-04-15T07:23:40.607Z,10.19
2023-04-15T07:26:32.378Z,10.23
2023-04-15T07:29:11.963Z,10.31
2023-04-15T07:31:52.121Z,10.45
2023-04-15T07:35:00.437Z,10.65
2023-04-15T07:38:03.290Z,10.82
2023-04-15T07:41:15.908Z,10.93
2023-04-15T07:44:28.941Z,11.02
2023-04-15T07:47:34.323Z,11.07
2023-04-15T07:50:39.119Z,11.17
2023-04-15T07:53:33.710Z,11.28
2023-04-15T07:56:40.277Z,11.44
2023-04-15T07:59:36.921Z,11.57
2023-04-15T08:02:50.619Z,11.67
2023-04-15T08:06:05.320Z,11.77
2023-04-15T08:09:13.738Z,11.79
2023-04-15T08:12:16.107Z,11.87
2023-04-15T08:15:18.492Z,11.89
2023-04-15T08:18:15.939Z,11.91
2023-04-15T08:21:14.117Z,11.99
2023-04-15T08:24:31.653Z,12.03
2023-04-15T08:27:14.357Z,12.17
2023-04-15T08:30:22.361Z,12.31
2023-04-15T08:33:10.811Z,12.51
2023-04-15T08:36:11.145Z,12.61
2023-04-15T08:39:02.545Z,12.65
2023-04-15T08:42:23.386Z,12.56
2023-04-15T08:45:12.321Z,12.45
2023-04-15T08:48:19.101Z,12.49
2023-04-15T08:51:18.812Z,12.58
2023-04-15T08:54:20.156Z,12.67
2023-04-15T08:57:04.218Z,12.82
2023-04-15T08:59:46.820Z,12.99
2023-04-15T09:02:30.152Z,13.13
2023-04-15T09:05:21.767Z,13.10
2023-04-15T09:08:19.903Z,13.09
2023-04-15T09:11:11.560Z,13.12
2023-04-15T09:14:00.753Z,13.17
2023-04-15T09:17:03.403Z,13.20
2023-04-15T09:19:48.368Z,13.13
2023-04-15T09:22:40.501Z,13.02
2023-04-15T09:26:05.910Z,12.96
2023-04-15T09:28:48.216Z,12.91
2023-04-15T09:31:41.170Z,12.85
2023-04-15T09:34:56.656Z,12.93
2023-04-15T09:37:50.424Z,13.07
2023-04-15T09:41:07.552Z,13.14
2023-04-15T09:44:08.072Z,13.09
2023-04-15T09:47:04.916Z,12.95
2023-04-15T09:49:59.217Z,12.90
2023-04-15T09:52:53.280Z,12.93
2023-04-15T09:55:47.664Z,12.96
2023-04-15T09:59:03.173Z,12.99
2023-04-15T10:02:05.649Z,12.98
2023-04-15T10:04:48.750Z,12.93
2023-04-15T10:07:41.495Z,12.91
2023-04-15T10:10:33.323Z,12.86
2023-04-15T10:13:36.413Z,12.85
2023-04-15T10:16:30.698Z,12.84
2023-04-15T10:19:24.736Z,12.80
2023-04-15T10:22:14.358Z,12.78
2023-04-15T10:25:16.729Z,12.78
2023-04-15T10:28:11.417Z,12.78
2023-04-15T10:31:15.259Z,12.77
2023-04-15T10:34:06.775Z,12.83
2023-04-15T10:36:54.789Z,12.95
2023-04-15T10:39:44.762Z,13.13
2023-04-15T10:42:37.255Z,13.37
2023-04-15T10:45:37.740Z,13.62
2023-04-15T10:48:12.079Z,13.88
2023-04-15T10:50:57.021Z,14.30
2023-04-15T10:53:34.205Z,14.86
2023-04-15T10:56:06.068Z,15.39
2023-04-15T10:58:46.930Z,15.96
2023-04-15T11:01:18.481Z,16.22
2023-04-15T11:03:50.183Z,16.24
2023-04-15T11:06:45.739Z,16.08
2023-04-15T11:09:35.013Z,16.17
2023-04-15T11:12:12.301Z,16.56
2023-04-15T11:14:43.574Z,16.61
2023-04-15T11:17:14.685Z,16.60
2023-04-15T11:19:44.602Z,16.63
2023-04-15T11:22:16.153Z,16.55
2023-04-15T11:24:53.438Z,16.40
2023-04-15T11:27:32.873Z,16.31
2023-04-15T11:30:19.475Z,16.26
2023-04-15T11:32:49.149Z,16.30
2023-04-15T11:35:22.885Z,16.40
2023-04-15T11:37:51.977Z,16.53
2023-04-15T11:40:28.921Z,16.64
2023-04-15T11:43:18.856Z,16.65
2023-04-15T11:46:00.396Z,16.50
2023-04-15T11:48:33.004Z,16.30
2023-04-15T11:51:09.676Z,16.18
2023-04-15T11:53:41.174Z,16.06
2023-04-15T11:56:18.931Z,15.89
2023-04-15T11:58:58.579Z,15.74
2023-04-15T12:01:39.979Z,15.63
2023-04-15T12:04:25.172Z,15.51
2023-04-15T12:07:07.628Z,15.41
2023-04-15T12:09:40.246Z,15.26
2023-04-15T12:12:14.410Z,15.11
2023-04-15T12:14:55.280Z,15.09
2023-04-15T12:17:31.901Z,15.11
2023-04-15T12:20:26.889Z,15.11
2023-04-15T12:23:10.688Z,15.08
2023-04-15T12:25:52.899Z,15.10
2023-04-15T12:28:31.198Z,15.08
2023-04-15T12:31:10.292Z,15.12
2023-04-15T12:33:44.736Z,15.12
2023-04-15T12:36:19.171Z,15.09
2023-04-15T12:39:00.757Z,15.05
2023-04-15T12:41:38.452Z,14.97
2023-04-15T12:44:09.697Z,14.96
2023-04-15T12:46:43.662Z,14.97
2023-04-15T12:49:21.096Z,14.89
2023-04-15T12:51:55.979Z,14.76
2023-04-15T12:54:30.696Z,14.71
2023-04-15T12:57:14.078Z,14.72
2023-04-15T12:59:48.398Z,14.68
2023-04-15T13:02:30.810Z,14.63
2023-04-15T13:05:24.782Z,14.58
2023-04-15T13:08:13.225Z,14.48
2023-04-15T13:10:49.382Z,14.36
2023-04-15T13:13:28.409Z,14.27
2023-04-15T13:16:04.826Z,14.25
2023-04-15T13:18:42.466Z,14.20
2023-04-15T13:21:16.073Z,14.17
2023-04-15T13:23:53.461Z,14.13
2023-04-15T13:26:33.209Z,14.08
2023-04-15T13:29:12.537Z,14.02
2023-04-15T13:31:50.704Z,14.02
2023-04-15T13:34:27.721Z,14.05
2023-04-15T13:37:11.252Z,14.03
2023-04-15T13:39:55.125Z,13.97
2023-04-15T13:42:33.912Z,13.97
2023-04-15T13:45:10.789Z,13.93
2023-04-15T13:47:42.565Z,13.90
2023-04-15T13:50:17.352Z,13.93
2023-04-15T13:53:05.924Z,13.95
2023-04-15T13:55:42.806Z,13.87
2023-04-15T13:58:30.429Z,13.90
2023-04-15T14:01:05.749Z,13.88
2023-04-15T14:03:40.584Z,13.92
2023-04-15T14:06:22.711Z,14.01
2023-04-15T14:08:59.366Z,14.05
2023-04-15T14:11:42.185Z,14.12
2023-04-15T14:14:27.862Z,14.12
2023-04-15T14:17:14.468Z,14.14
2023-04-15T14:19:53.498Z,14.19
2023-04-15T14:22:32.210Z,14.20
2023-04-15T14:25:06.672Z,14.30
2023-04-15T14:27:44.017Z,14.45
2023-04-15T14:30:15.792Z,14.60
2023-04-15T14:32:56.069Z,14.80
2023-04-15T14:35:27.589Z,15.00
2023-04-15T14:38:06.402Z,15.11
2023-04-15T14:40:37.439Z,15.21
2023-04-15T14:43:11.256Z,15.26
2023-04-15T14:45:44.571Z,15.24
2023-04-15T14:48:22.335Z,15.28
2023-04-15T14:50:51.126Z,15.42
2023-04-15T14:53:25.443Z,15.55
2023-04-15T14:56:02.727Z,15.80
2023-04-15T14:58:33.989Z,16.09
2023-04-15T15:01:04.308Z,16.25
2023-04-15T15:03:33.075Z,16.41
2023-04-15T15:06:04.843Z,16.62
2023-04-15T15:08:38.641Z,16.70
2023-04-15T15:11:09.684Z,16.71
2023-04-15T15:13:38.680Z,16.58
2023-04-15T15:16:10.635Z,16.47
2023-04-15T15:18:40.251Z,16.30
2023-04-15T15:21:08.721Z,16.12
2023-04-15T15:23:37.106Z,15.95
2023-04-15T15:26:05.783Z,15.87
2023-04-15T15:28:35.247Z,15.80
2023-04-15T15:31:04.839Z,15.87
2023-04-15T15:33:33.581Z,15.99
2023-04-15T15:36:02.415Z,16.13
2023-04-15T15:38:30.750Z,16.35
2023-04-15T15:41:02.300Z,16.43
2023-04-15T15:43:30.563Z,16.34
2023-04-15T15:45:59.047Z,16.24
2023-04-15T15:48:27.420Z,16.15
2023-04-15T15:50:55.892Z,16.00
2023-04-15T15:53:26.014Z,15.82
2023-04-15T15:55:54.296Z,15.74
2023-04-15T15:58:22.876Z,15.71
2023-04-15T16:00:51.324Z,15.66
2023-04-15T16:03:20.183Z,15.57
2023-04-15T16:05:49.238Z,15.48
2023-04-15T16:08:18.020Z,15.32
2023-04-15T16:10:46.601Z,15.18
2023-04-15T16:13:15.658Z,15.07
2023-04-15T16:15:50.058Z,14.94
2023-04-15T16:18:18.604Z,14.85
2023-04-15T16:20:54.445Z,14.77
2023-04-15T16:23:23.948Z,14.65
2023-04-15T16:25:54.784Z,14.59
2023-04-15T16:28:26.758Z,14.53
2023-04-15T16:31:01.098Z,14.47
2023-04-15T16:33:32.207Z,14.39
2023-04-15T16:36:04.491Z,14.29
2023-04-15T16:38:35.807Z,14.23
2023-04-15T16:41:04.614Z,14.22
2023-04-15T16:43:35.950Z,14.21
2023-04-15T16:46:08.017Z,14.17
2023-04-15T16:48:39.873Z,14.13
2023-04-15T16:51:11.017Z,14.07
2023-04-15T16:53:48.667Z,13.99
2023-04-15T16:56:17.373Z,13.89
2023-04-15T16:58:48.333Z,13.77
2023-04-15T17:01:20.352Z,13.59
2023-04-15T17:03:53.443Z,13.39
2023-04-15T17:06:26.879Z,13.20
2023-04-15T17:08:55.969Z,13.03
2023-04-15T17:11:33.050Z,12.88
2023-04-15T17:14:06.342Z,12.72
2023-04-15T17:16:47.724Z,12.57
2023-04-15T17:19:27.057Z,12.41
2023-04-15T17:22:02.401Z,12.25
2023-04-15T17:24:42.348Z,12.13
2023-04-15T17:27:14.158Z,12.01
2023-04-15T17:29:51.287Z,11.91
2023-04-15T17:32:40.229Z,11.81
2023-04-15T17:35:51.835Z,11.69
2023-04-15T17:38:51.796Z,11.59
2023-04-15T17:41:32.011Z,11.46
2023-04-15T17:44:25.193Z,11.36
2023-04-15T17:47:19.656Z,11.26
2023-04-15T17:50:27.455Z,11.18
2023-04-15T17:53:19.177Z,11.07
2023-04-15T17:56:20.945Z,10.97
2023-04-15T17:59:15.447Z,10.90
2023-04-15T18:02:21.142Z,10.83
2023-04-15T18:05:16.340Z,10.77
2023-04-15T18:08:16.608Z,10.72
2023-04-15T18:11:13.045Z,10.66
2023-04-15T18:14:02.754Z,10.60
2023-04-15T18:16:40.901Z,10.56
2023-04-15T18:19:53.752Z,10.51
2023-04-15T18:22:31.638Z,10.46
2023-04-15T18:25:46.207Z,10.40
2023-04-15T18:28:27.421Z,10.34
2023-04-15T18:31:30.072Z,10.31
2023-04-15T18:34:23.222Z,10.29
2023-04-15T18:37:22.223Z,10.27
2023-04-15T18:40:16.219Z,10.26
2023-04-15T18:43:25.019Z,10.23
2023-04-15T18:46:37.001Z,10.18
2023-04-15T18:49:45.740Z,10.16
2023-04-15T18:52:44.552Z,10.14
2023-04-15T18:55:35.951Z,10.11
2023-04-15T18:59:08.864Z,10.07
2023-04-15T19:02:20.830Z,10.05
2023-04-15T19:05:36.624Z,10.01
2023-04-15T19:08:26.712Z,9.98
2023-04-15T19:11:42.130Z,9.94
2023-04-15T19:14:41.084Z,9.90
2023-04-15T19:17:39.789Z,9.84
2023-04-15T19:20:58.730Z,9.80
2023-04-15T19:23:57.419Z,9.78
2023-04-15T19:26:53.342Z,9.75
2023-04-15T19:29:52.545Z,9.72
2023-04-15T19:33:08.021Z,9.65
2023-04-15T19:36:31.910Z,9.60
2023-04-15T19:39:29.775Z,9.58
2023-04-15T19:42:35.317Z,9.56
2023-04-15T19:45:56.957Z,9.53
2023-04-15T19:49:02.201Z,9.51
2023-04-15T19:51:45.317Z,9.46
2023-04-15T19:54:40.922Z,9.42
2023-04-15T19:57:44.214Z,9.39
2023-04-15T20:00:43.522Z,9.35
2023-04-15T20:04:04.627Z,9.30
2023-04-15T20:07:07.827Z,9.23
2023-04-15T20:10:16.556Z,9.19
2023-04-15T20:13:27.932Z,9.15
2023-04-15T20:16:38.601Z,9.10
2023-04-15T20:19:41.812Z,9.07
2023-04-15T20:22:47.552Z,9.04
2023-04-15T20:25:59.653Z,9.01
2023-04-15T20:29:17.557Z,8.96
2023-04-15T20:32:28.560Z,8.89
2023-04-15T20:35:28.474Z,8.83
2023-04-15T20:38:50.506Z,8.76
2023-04-15T20:42:10.406Z,8.70
2023-04-15T20:45:14.712Z,8.63
2023-04-15T20:48:24.664Z,8.52
2023-04-15T20:51:45.848Z,8.40
2023-04-15T20:55:09.250Z,8.27
2023-04-15T20:58:21.997Z,8.14
2023-04-15T21:01:25.091Z,8.02
2023-04-15T21:04:39.410Z,7.90
2023-04-15T21:07:54.156Z,7.78
2023-04-15T21:10:54.197Z,7.71
2023-04-15T21:14:27.673Z,7.64
2023-04-15T21:17:45.770Z,7.53
2023-04-15T21:21:09.127Z,7.43
2023-04-15T21:24:26.835Z,7.32
2023-04-15T21:27:54.857Z,7.22
2023-04-15T21:31:07.627Z,7.12
2023-04-15T21:34:56.809Z,7.04
2023-04-15T21:38:23.235Z,6.95
2023-04-15T21:41:54.251Z,6.83
2023-04-15T21:45:34.674Z,6.76
2023-04-15T21:49:12.521Z,6.73
2023-04-15T21:53:00.391Z,6.63
2023-04-15T21:56:49.473Z,6.55
2023-04-15T22:00:38.716Z,6.48
2023-04-15T22:04:31.993Z,6.36
2023-04-15T22:08:19.537Z,6.26
2023-04-15T22:12:08.393Z,6.18
2023-04-15T22:15:50.073Z,6.12
2023-04-15T22:19:38.112Z,6.06
2023-04-15T22:23:20.149Z,6.01
2023-04-15T22:26:59.274Z,6.03
2023-04-15T22:30:35.236Z,5.97
2023-04-15T22:34:04.171Z,5.87
2023-04-15T22:37:38.069Z,5.80
2023-04-15T22:41:03.970Z,5.73
2023-04-15T22:44:42.787Z,5.66
2023-04-15T22:48:21.824Z,5.61
2023-04-15T22:51:59.795Z,5.57
2023-04-15T22:55:49.217Z,5.51
2023-04-15T22:59:32.333Z,5.49
2023-04-15T23:03:12.633Z,5.46
2023-04-15T23:07:00.332Z,5.39
2023-04-15T23:10:48.375Z,5.36
2023-04-15T23:14:30.381Z,5.34
2023-04-15T23:18:19.485Z,5.32
2023-04-15T23:21:49.203Z,5.27
2023-04-15T23:25:18.575Z,5.20
2023-04-15T23:29:07.901Z,5.15
2023-04-15T23:32:57.465Z,5.07
2023-04-15T23:36:46.797Z,5.03
2023-04-15T23:40:35.966Z,5.01
2023-04-15T23:44:19.259Z,4.95
2023-04-15T23:47:59.937Z,4.91
2023-04-15T23:51:49.242Z,4.82
2023-04-15T23:55:38.395Z,4.80
2023-04-15T23:59:26.558Z,4.73
